Brooklyn, Wisconsin
Current Conditions -  °F | °C
As of 12:15 AM on Wednesday 28 Jan 2015 (Local Time) from KEFT Reporting Station
Haze Haze  
Wind Chill: 17°   Ceiling: 1700
Heat Index: 27°   Visibility: 5mi
Dew Point: 27°   Wind: 9mph
Humidity: 100%   Direction: 140°SE
Pressure: 30.22"   Gusts: NA
Location:  42.85°N, 89.37°W
Report Text: KEFT 280615Z AUTO 14008KT 5SM BR SCT007 OVC017 M03/M03 A3022 RMK AO2
Loading
Personal Weather Stations






























Interactive Weather Map New forecast layout! Learn more

10-Day Weather Forecast

Advertisements
Track Severe Weather on mobile